Villa Montes, Bolivia
Current Conditions -  °F | °C
As of 7:00 PM on Saturday 25 Oct 2014 (Local Time) from SLTJ Reporting Station
Few Clouds Few Clouds  
Wind Chill: 73°   Ceiling: Unl
Heat Index: 73°   Visibility: 6mi
Dew Point: 57°   Wind: 6mph
Humidity: 57%   Direction: 130°SE
Pressure: 30.09"   Gusts: NA
Location:  21.27°S, 63.5°W
Report Text: SLTJ 252300Z 13005KT 9999 FEW033 23/14 Q1019
Loading
Personal Weather Stations






























Interactive Weather Map
Tropical Storm Tracking
New forecast layout! Learn more

10-Day Weather Forecast

Advertisements
Track Severe Weather on mobile